Time;durP1;ratioP1;P1;durP2;ratioP2;P2;SDS_P1;SDS_P2;PMS_P1;PMS_P2;Temp;Humidity;BMP_temperature;BMP_pressure;BME280_temperature;BME280_humidity;BME280_pressure;Samples;Min_cycle;Max_cycle;Signal;HPM_P1;HPM_P2
2022/04/21 00:02:06;;;;;;;10.27;5.68;;;;;;;9.46;62.19;101284.44;5092887;28;20093;-68
2022/04/21 00:04:32;;;;;;;13.38;5.55;;;;;;;9.41;62.00;101289.44;5092959;28;20108;-68
2022/04/21 00:06:57;;;;;;;8.20;5.22;;;;;;;9.39;62.48;101284.28;5092839;28;20055;-68
2022/04/21 00:09:22;;;;;;;8.65;5.15;;;;;;;9.37;62.10;101280.16;5092802;28;20036;-68
2022/04/21 00:11:48;;;;;;;7.57;4.35;;;;;;;9.35;62.37;101284.81;5092668;28;20028;-68
2022/04/21 00:14:13;;;;;;;12.50;5.55;;;;;;;9.33;62.32;101281.53;5092605;28;20077;-68
2022/04/21 00:16:38;;;;;;;10.05;5.95;;;;;;;9.30;62.46;101282.72;5092569;28;20028;-69
2022/04/21 00:19:04;;;;;;;9.93;4.60;;;;;;;9.23;62.57;101275.63;5091442;28;20075;-68
2022/04/21 00:23:26;;;;;;;9.25;5.53;;;;;;;9.21;63.25;101276.59;5091361;28;20055;-68
2022/04/21 00:24:14;;;;;;;8.63;5.22;;;;;;;9.19;63.00;101283.94;5110501;28;20039;-68
2022/04/21 00:26:40;;;;;;;10.50;5.13;;;;;;;9.17;63.43;101280.63;5099822;28;20047;-68
2022/04/21 00:29:05;;;;;;;7.72;5.25;;;;;;;9.15;63.24;101284.47;5090997;28;20134;-68
2022/04/21 00:31:30;;;;;;;9.75;5.38;;;;;;;9.11;63.48;101280.50;5092406;28;20141;-68
2022/04/21 00:33:56;;;;;;;8.45;4.78;;;;;;;9.09;63.39;101275.38;5092211;28;20113;-68
2022/04/21 00:36:21;;;;;;;8.68;5.25;;;;;;;9.05;63.47;101273.22;5092314;28;20120;-68
2022/04/21 00:38:46;;;;;;;8.57;5.05;;;;;;;9.00;63.50;101279.06;5092204;28;20024;-68
2022/04/21 00:41:12;;;;;;;11.10;5.05;;;;;;;8.96;63.96;101277.75;5092100;28;20039;-68
2022/04/21 00:43:37;;;;;;;10.30;4.90;;;;;;;8.91;64.17;101274.81;5111429;28;20058;-68
2022/04/21 00:46:03;;;;;;;13.50;5.18;;;;;;;8.88;64.02;101275.16;5110216;28;20248;-68
2022/04/21 00:48:29;;;;;;;9.40;4.57;;;;;;;8.86;64.25;101269.19;5111493;28;20031;-68
2022/04/21 00:50:56;;;;;;;10.77;6.13;;;;;;;8.83;64.39;101275.69;5111577;28;20035;-68
2022/04/21 00:53:21;;;;;;;8.75;4.50;;;;;;;8.78;64.76;101270.06;5110823;28;20093;-68
2022/04/21 00:55:47;;;;;;;10.30;5.40;;;;;;;8.70;64.71;101270.94;5111257;28;20449;-68
2022/04/21 00:58:14;;;;;;;8.80;5.18;;;;;;;8.71;64.79;101271.75;5109948;28;20394;-68
2022/04/21 01:00:40;;;;;;;10.50;6.20;;;;;;;8.69;65.12;101269.25;5111160;28;20028;-68
2022/04/21 01:03:06;;;;;;;8.48;4.90;;;;;;;8.65;65.07;101275.94;5111172;28;20027;-68
2022/04/21 01:05:33;;;;;;;9.13;5.00;;;;;;;8.61;64.60;101271.97;5111196;28;20023;-68
2022/04/21 01:07:58;;;;;;;10.73;4.88;;;;;;;8.59;65.02;101271.31;5111152;28;20070;-68
2022/04/21 01:10:26;;;;;;;11.25;5.10;;;;;;;8.55;65.15;101275.31;5110999;28;20499;-68
2022/04/21 01:12:52;;;;;;;9.95;5.05;;;;;;;8.51;65.79;101274.00;5111011;28;20058;-68
2022/04/21 01:15:17;;;;;;;9.73;5.05;;;;;;;8.46;65.79;101269.22;5110710;28;20034;-68
2022/04/21 01:17:43;;;;;;;11.25;5.07;;;;;;;8.44;65.60;101281.03;5109602;28;20108;-68
2022/04/21 01:20:09;;;;;;;10.82;4.55;;;;;;;8.40;65.48;101272.53;5110742;28;20031;-68
2022/04/21 01:22:35;;;;;;;11.85;5.15;;;;;;;8.42;65.59;101275.03;5110816;28;20016;-68
2022/04/21 01:25:01;;;;;;;11.23;6.00;;;;;;;8.40;65.64;101271.72;5110530;28;20031;-68
2022/04/21 01:27:29;;;;;;;10.77;5.40;;;;;;;8.40;65.57;101264.56;5110136;28;20027;-68
2022/04/21 01:29:54;;;;;;;11.00;5.70;;;;;;;8.38;65.73;101261.22;5110734;28;20083;-68
2022/04/21 01:32:20;;;;;;;10.25;5.18;;;;;;;8.37;66.14;101259.56;5110659;28;20032;-68
2022/04/21 01:34:45;;;;;;;8.80;4.70;;;;;;;8.35;66.22;101259.75;5110664;28;20546;-68
2022/04/21 01:42:38;;;;;;;9.15;5.07;;;;;;;8.20;66.15;101250.00;5110793;28;20415;-68
2022/04/21 01:45:04;;;;;;;9.30;4.72;;;;;;;8.22;65.72;101255.97;5089597;28;20024;-68
2022/04/21 01:47:29;;;;;;;15.00;6.97;;;;;;;8.18;66.26;101254.69;5090917;28;20574;-68
2022/04/21 01:49:54;;;;;;;8.43;4.47;;;;;;;8.15;66.03;101261.16;5090855;28;20028;-68
2022/04/21 01:52:20;;;;;;;11.35;5.57;;;;;;;8.10;65.88;101247.56;5090432;28;20086;-68
2022/04/21 01:54:50;;;;;;;9.70;4.68;;;;;;;8.13;65.71;101252.53;5090673;28;20122;-68
2022/04/21 01:57:15;;;;;;;9.02;4.07;;;;;;;8.12;65.89;101251.69;5109996;28;20039;-68
2022/04/21 01:59:41;;;;;;;6.95;4.97;;;;;;;8.12;66.18;101254.34;5110165;28;20087;-68
2022/04/21 02:02:06;;;;;;;10.45;4.60;;;;;;;8.15;65.66;101260.31;5109864;28;20115;-68
2022/04/21 02:04:31;;;;;;;14.73;5.68;;;;;;;8.13;66.31;101258.66;5109419;28;20149;-68
2022/04/21 02:06:57;;;;;;;10.85;4.88;;;;;;;8.10;66.24;101259.00;5109933;28;20028;-68
2022/04/21 02:09:22;;;;;;;9.13;4.95;;;;;;;8.08;66.11;101254.88;5110003;28;20035;-68
2022/04/21 02:11:47;;;;;;;9.63;5.57;;;;;;;8.03;66.53;101250.06;5109881;28;20080;-68
2022/04/21 02:14:13;;;;;;;10.57;5.20;;;;;;;8.01;66.63;101253.88;5109648;28;20440;-68
2022/04/21 02:16:39;;;;;;;7.28;4.85;;;;;;;7.97;66.88;101255.22;5109747;28;20046;-68
2022/04/21 02:19:04;;;;;;;9.73;5.20;;;;;;;7.94;67.23;101261.72;5109567;28;20058;-68
2022/04/21 02:21:29;;;;;;;12.27;5.90;;;;;;;7.85;66.77;101249.44;5109713;28;20085;-68
2022/04/21 02:23:54;;;;;;;12.43;5.68;;;;;;;7.89;67.00;101256.91;5108325;28;20080;-68
2022/04/21 02:26:20;;;;;;;9.40;5.38;;;;;;;7.89;67.46;101258.72;5109597;28;20038;-68
2022/04/21 02:28:45;;;;;;;9.38;4.93;;;;;;;7.87;67.25;101258.88;5109231;28;20031;-68
2022/04/21 02:31:10;;;;;;;11.02;5.90;;;;;;;7.86;67.72;101262.56;5109300;28;20028;-68
2022/04/21 02:33:36;;;;;;;10.05;5.45;;;;;;;7.82;67.45;101258.56;5109453;28;20028;-68
2022/04/21 02:36:01;;;;;;;14.40;5.72;;;;;;;7.78;67.85;101254.59;5109524;28;20038;-68
2022/04/21 02:38:26;;;;;;;13.43;5.78;;;;;;;7.75;67.71;101262.06;5109401;28;20028;-68
2022/04/21 02:40:52;;;;;;;9.70;4.68;;;;;;;7.73;67.63;101256.94;5108923;28;20028;-68
2022/04/21 02:43:17;;;;;;;12.60;6.15;;;;;;;7.69;67.55;101255.59;5109334;28;20048;-68
2022/04/21 02:45:43;;;;;;;10.30;5.75;;;;;;;7.64;67.96;101249.97;5109580;28;20027;-68
2022/04/21 02:48:09;;;;;;;10.85;4.82;;;;;;;7.58;68.14;101247.97;5109458;28;20027;-68
2022/04/21 02:50:35;;;;;;;8.48;5.38;;;;;;;7.57;68.54;101254.25;5109282;28;20084;-68
2022/04/21 02:53:01;;;;;;;11.35;6.25;;;;;;;7.52;68.28;101249.47;5109240;28;20032;-68
2022/04/21 02:58:11;;;;;;;9.82;5.32;;;;;;;7.46;68.83;101255.44;5109749;28;20046;-68
2022/04/21 03:00:37;;;;;;;9.70;4.88;;;;;;;7.44;68.68;101258.28;5089725;28;20483;-68
2022/04/21 03:03:02;;;;;;;11.55;5.05;;;;;;;7.36;68.48;101252.97;5088516;28;20125;-68
2022/04/21 03:05:27;;;;;;;10.50;5.32;;;;;;;7.37;67.95;101253.78;5089723;28;20883;-68
2022/04/21 03:07:54;;;;;;;11.82;5.60;;;;;;;7.38;68.43;101252.78;5089851;28;20028;-68
2022/04/21 03:10:20;;;;;;;8.90;4.75;;;;;;;7.32;68.88;101254.28;5089727;28;20480;-68
2022/04/21 03:12:46;;;;;;;11.60;5.97;;;;;;;7.32;68.65;101253.47;5108730;28;20051;-68
2022/04/21 03:15:12;;;;;;;12.32;6.40;;;;;;;7.24;69.09;101251.63;5110289;28;20080;-68
2022/04/21 03:17:39;;;;;;;12.63;6.00;;;;;;;7.25;69.26;101256.75;5113091;28;20088;-68
2022/04/21 03:20:04;;;;;;;12.00;5.20;;;;;;;7.23;69.09;101256.09;5113349;28;20471;-68
2022/04/21 03:25:15;;;;;;;12.65;5.20;;;;;;;7.15;69.02;101253.44;5113397;28;20104;-68
2022/04/21 03:27:43;;;;;;;11.93;6.18;;;;;;;7.13;69.39;101249.31;5113021;28;20897;-68
2022/04/21 03:30:09;;;;;;;13.15;6.28;;;;;;;7.09;69.65;101251.44;5112566;28;20051;-68
2022/04/21 03:32:35;;;;;;;14.90;5.78;;;;;;;7.02;68.98;101240.66;5112598;27;20035;-68
2022/04/21 03:35:01;;;;;;;14.23;6.63;;;;;;;6.96;69.14;101233.34;5112751;27;20024;-68
2022/04/21 03:37:27;;;;;;;10.82;5.43;;;;;;;7.01;69.54;101246.13;5112301;28;20037;-68
2022/04/21 03:39:53;;;;;;;9.48;4.97;;;;;;;7.00;68.95;101247.94;5112912;27;20049;-68
2022/04/21 03:42:31;;;;;;;11.30;5.80;;;;;;;6.98;69.11;101257.06;5112413;28;20073;-68
2022/04/21 03:44:57;;;;;;;13.27;5.93;;;;;;;6.95;69.58;101255.56;5112564;28;20058;-68
2022/04/21 03:47:23;;;;;;;13.77;5.25;;;;;;;6.93;69.39;101254.06;5112416;28;20059;-68
2022/04/21 03:49:48;;;;;;;9.13;4.95;;;;;;;6.91;69.29;101256.88;5112619;27;20032;-68
2022/04/21 03:52:14;;;;;;;12.02;6.30;;;;;;;6.90;70.14;101259.69;5111210;28;20032;-68
2022/04/21 03:54:40;;;;;;;11.77;5.80;;;;;;;6.88;69.78;101264.34;5112598;28;20038;-68
2022/04/21 03:57:06;;;;;;;11.77;5.35;;;;;;;6.84;69.81;101252.38;5112782;28;20470;-68
2022/04/21 03:59:33;;;;;;;12.63;6.57;;;;;;;6.84;69.57;101261.19;5112494;28;20046;-68
2022/04/21 04:02:04;;;;;;;9.40;5.00;;;;;;;6.80;69.46;101260.66;5112454;28;20084;-68
2022/04/21 04:04:31;;;;;;;13.13;5.82;;;;;;;6.79;69.52;101266.13;5112377;28;20477;-68
2022/04/21 04:12:33;;;;;;;11.00;5.68;;;;;;;6.74;70.13;101255.19;5112460;28;20046;-68
2022/04/21 04:14:59;;;;;;;11.35;5.13;;;;;;;6.71;70.66;101266.13;5112204;28;20027;-68
2022/04/21 04:17:25;;;;;;;10.63;5.47;;;;;;;6.64;71.07;101265.09;5112251;27;20383;-68
2022/04/21 04:19:51;;;;;;;11.10;6.47;;;;;;;6.54;71.65;101258.09;5112135;28;20020;-68
2022/04/21 04:22:16;;;;;;;14.32;6.18;;;;;;;6.52;71.50;101261.88;5111773;28;20035;-68
2022/04/21 04:24:44;;;;;;;12.85;6.22;;;;;;;6.50;71.09;101263.91;5111917;28;20486;-68
2022/04/21 04:27:10;;;;;;;9.75;4.60;;;;;;;6.51;70.50;101263.72;5110914;28;20043;-68
2022/04/21 04:29:35;;;;;;;13.30;5.80;;;;;;;6.53;70.62;101259.09;5111705;28;20386;-68
2022/04/21 04:32:01;;;;;;;11.95;5.93;;;;;;;6.53;70.58;101256.44;5111297;28;20032;-68
2022/04/21 04:34:27;;;;;;;14.02;6.20;;;;;;;6.53;70.45;101256.44;5111499;27;20047;-68
2022/04/21 04:36:52;;;;;;;12.13;5.50;;;;;;;6.58;70.49;101254.16;5111621;28;20359;-68
2022/04/21 04:39:18;;;;;;;9.90;5.75;;;;;;;6.62;70.23;101259.94;5110179;28;20112;-68
2022/04/21 04:44:28;;;;;;;14.65;6.47;;;;;;;6.68;70.12;101261.13;5111396;28;20181;-68
2022/04/21 04:46:54;;;;;;;11.48;5.45;;;;;;;6.71;70.01;101268.78;5111530;28;20122;-68
2022/04/21 04:49:20;;;;;;;10.88;6.10;;;;;;;6.74;70.60;101265.78;5111439;28;20046;-68
2022/04/21 04:51:45;;;;;;;11.55;6.28;;;;;;;6.79;70.13;101263.50;5111367;28;20035;-68
2022/04/21 04:54:12;;;;;;;11.80;5.53;;;;;;;6.81;69.77;101261.47;5111294;28;20024;-68
2022/04/21 04:56:40;;;;;;;15.90;6.72;;;;;;;6.87;69.33;101265.34;5111155;28;20121;-68
2022/04/21 04:59:05;;;;;;;13.85;6.47;;;;;;;6.91;69.66;101259.53;5110915;28;20027;-68
2022/04/21 05:01:41;;;;;;;14.10;6.78;;;;;;;6.97;69.56;101268.69;5109637;28;20027;-68
2022/04/21 05:04:14;;;;;;;11.30;5.90;;;;;;;6.99;69.41;101267.50;5111219;28;20497;-68
2022/04/21 05:06:54;;;;;;;7.95;4.97;;;;;;;7.17;69.16;101263.88;5111275;28;20027;-68
2022/04/21 05:09:21;;;;;;;11.07;5.60;;;;;;;7.76;67.70;101274.34;5106328;28;20036;-68
2022/04/21 05:11:50;;;;;;;10.52;5.75;;;;;;;8.19;65.78;101262.47;5091437;28;20028;-68
2022/04/21 05:14:17;;;;;;;12.02;5.63;;;;;;;8.21;65.90;101257.81;5111012;28;20048;-68
2022/04/21 05:16:43;;;;;;;16.10;6.63;;;;;;;8.34;64.74;101258.09;5110762;28;20038;-68
2022/04/21 05:19:10;;;;;;;17.63;6.35;;;;;;;8.37;64.84;101256.09;5110792;28;20114;-68
2022/04/21 05:21:36;;;;;;;11.20;5.63;;;;;;;8.50;64.55;101251.09;5110842;28;20028;-68
2022/04/21 05:24:04;;;;;;;11.38;5.63;;;;;;;8.70;64.24;101254.16;5110732;27;20110;-68
2022/04/21 05:26:30;;;;;;;11.05;6.07;;;;;;;8.83;63.37;101254.41;5110500;28;20166;-68
2022/04/21 05:28:58;;;;;;;9.65;5.38;;;;;;;9.01;63.59;101256.78;5110484;28;20035;-68
2022/04/21 05:31:26;;;;;;;14.88;5.72;;;;;;;9.51;62.17;101246.59;5110597;28;20027;-68
2022/04/21 05:33:52;;;;;;;13.38;6.47;;;;;;;9.95;60.31;101259.16;5110227;28;20080;-68
2022/04/21 05:36:18;;;;;;;12.80;6.57;;;;;;;9.89;60.08;101250.06;5110376;28;20023;-68
2022/04/21 05:38:46;;;;;;;13.38;6.05;;;;;;;9.73;60.76;101258.22;5110352;28;20069;-68
2022/04/21 05:41:13;;;;;;;15.30;6.65;;;;;;;9.78;60.71;101251.34;5110288;28;20023;-68
2022/04/21 05:43:41;;;;;;;11.75;5.93;;;;;;;9.75;61.03;101250.88;5109858;28;20143;-68
2022/04/21 05:46:07;;;;;;;13.57;6.00;;;;;;;9.86;59.26;101253.09;5110014;28;20038;-68
2022/04/21 05:48:34;;;;;;;9.90;5.40;;;;;;;9.89;59.36;101252.72;5108823;28;20039;-68
2022/04/21 05:51:00;;;;;;;10.23;5.03;;;;;;;9.76;59.40;101249.88;5110426;27;20023;-68
2022/04/21 05:53:27;;;;;;;10.40;6.00;;;;;;;9.46;60.99;101257.81;5110169;28;20118;-68
2022/04/21 05:55:53;;;;;;;11.40;7.13;;;;;;;9.29;60.50;101254.41;5110276;28;20028;-68
2022/04/21 05:58:20;;;;;;;10.13;5.43;;;;;;;9.17;61.81;101239.91;5110197;28;20050;-68
2022/04/21 06:00:46;;;;;;;11.38;5.93;;;;;;;9.33;61.56;101255.75;5110191;28;20020;-68
2022/04/21 06:03:11;;;;;;;10.68;6.03;;;;;;;9.53;61.86;101255.22;5109926;28;20031;-68
2022/04/21 06:05:38;;;;;;;15.05;6.40;;;;;;;9.81;60.72;101250.16;5109775;28;20038;-68
2022/04/21 06:08:06;;;;;;;12.02;7.07;;;;;;;9.87;60.84;101246.75;5109802;27;20122;-68
2022/04/21 06:10:32;;;;;;;12.40;6.07;;;;;;;9.96;60.55;101259.00;5109758;28;20110;-68
2022/04/21 06:12:57;;;;;;;13.75;5.38;;;;;;;9.86;61.01;101245.94;5109540;28;20084;-68
2022/04/21 06:15:23;;;;;;;13.35;5.75;;;;;;;9.85;60.20;101252.28;5109756;28;20059;-68
2022/04/21 06:17:48;;;;;;;13.70;6.50;;;;;;;9.82;60.12;101257.97;5109556;28;20108;-68
2022/04/21 06:20:14;;;;;;;12.82;6.07;;;;;;;9.74;60.70;101255.38;5109776;28;20498;-68
2022/04/21 06:22:40;;;;;;;12.63;6.30;;;;;;;9.71;61.44;101255.72;5109842;28;20024;-68
2022/04/21 06:25:06;;;;;;;12.20;5.93;;;;;;;9.69;61.03;101252.41;5109546;28;20027;-68
2022/04/21 06:27:31;;;;;;;11.77;6.28;;;;;;;9.58;62.35;101237.69;5109432;28;20034;-68
2022/04/21 06:29:56;;;;;;;10.25;6.13;;;;;;;9.63;60.94;101245.97;5104038;28;20024;-68
2022/04/21 06:32:23;;;;;;;12.82;6.00;;;;;;;9.65;62.22;101245.81;5090931;28;20032;-68
2022/04/21 06:34:48;;;;;;;11.43;5.85;;;;;;;9.72;61.37;101245.91;5110305;28;20501;-68
2022/04/21 06:37:13;;;;;;;11.80;6.28;;;;;;;9.80;61.94;101240.53;5108826;28;20039;-68
2022/04/21 06:39:39;;;;;;;10.65;5.95;;;;;;;10.04;60.89;101234.91;5109236;28;20027;-68
2022/04/21 06:42:04;;;;;;;14.75;6.57;;;;;;;10.23;60.61;101235.38;5109249;28;20043;-68
2022/04/21 06:50:11;;;;;;;10.35;5.68;;;;;;;10.46;60.92;101236.13;5108652;28;20676;-68
2022/04/21 06:52:37;;;;;;;11.95;6.38;;;;;;;10.56;60.33;101237.66;5109200;28;20024;-68
2022/04/21 06:55:03;;;;;;;12.93;6.43;;;;;;;10.53;59.65;101234.38;5109217;28;20034;-68
2022/04/21 06:57:29;;;;;;;10.90;6.75;;;;;;;10.55;59.46;101233.34;5109266;28;20110;-68
2022/04/21 06:59:54;;;;;;;11.32;6.50;;;;;;;10.56;60.13;101225.16;5109308;28;20114;-68
2022/04/21 07:02:37;;;;;;;12.70;6.38;;;;;;;10.60;60.32;101231.75;5089823;28;20028;-68
2022/04/21 07:05:04;;;;;;;12.52;7.03;;;;;;;10.66;60.82;101223.03;5109213;28;20487;-68
2022/04/21 07:07:29;;;;;;;11.20;6.03;;;;;;;10.73;60.93;101231.91;5109031;28;20372;-69
2022/04/21 07:09:56;;;;;;;13.73;6.78;;;;;;;10.82;60.37;101235.31;5109057;28;20035;-69
2022/04/21 07:12:29;;;;;;;7.57;5.55;;;;;;;10.87;59.75;101226.72;5108884;28;20508;-68
2022/04/21 07:15:06;;;;;;;10.35;5.95;;;;;;;10.99;59.58;101238.56;5109140;28;20030;-68
2022/04/21 07:17:34;;;;;;;11.65;5.85;;;;;;;11.03;58.57;101237.16;5109046;28;20058;-69
2022/04/21 07:20:02;;;;;;;18.13;7.20;;;;;;;11.12;58.56;101249.34;5109020;28;20088;-69
2022/04/21 07:22:28;;;;;;;11.82;6.15;;;;;;;11.21;58.33;101243.88;5109295;28;20087;-69
2022/04/21 07:24:55;;;;;;;15.43;6.32;;;;;;;11.39;58.20;101252.28;5108852;28;20024;-69
2022/04/21 07:27:21;;;;;;;8.70;5.25;;;;;;;11.51;57.57;101239.25;5108780;28;20623;-69
2022/04/21 07:29:47;;;;;;;10.63;6.00;;;;;;;11.72;58.02;101246.38;5108628;28;20904;-69
2022/04/21 07:32:13;;;;;;;11.95;6.22;;;;;;;12.04;56.14;101236.97;5108901;28;20032;-69
2022/04/21 07:34:38;;;;;;;9.88;5.30;;;;;;;12.47;54.68;101234.06;5108958;28;20020;-69
2022/04/21 07:37:05;;;;;;;10.48;5.22;;;;;;;12.73;54.17;101246.72;5109045;28;20027;-69
2022/04/21 07:39:33;;;;;;;8.45;5.13;;;;;;;13.23;53.50;101249.09;5095835;28;20432;-69
2022/04/21 07:41:59;;;;;;;12.88;4.82;;;;;;;13.36;52.35;101244.63;5091963;28;20035;-69
2022/04/21 07:44:26;;;;;;;8.52;4.93;;;;;;;13.10;52.87;101247.25;5107170;28;20055;-69
2022/04/21 07:46:52;;;;;;;9.98;6.22;;;;;;;13.10;52.91;101255.28;5108722;28;20070;-69
2022/04/21 07:54:46;;;;;;;9.05;5.28;;;;;;;14.11;50.79;101251.56;5089417;28;20051;-69
2022/04/21 07:57:11;;;;;;;10.98;5.43;;;;;;;14.72;49.43;101253.84;5089194;28;20036;-68
2022/04/21 07:59:36;;;;;;;7.80;5.18;;;;;;;15.43;47.38;101249.25;5089265;28;20035;-68
2022/04/21 08:02:03;;;;;;;10.65;5.38;;;;;;;16.27;45.24;101245.19;5090245;28;20478;-69
2022/04/21 08:04:30;;;;;;;8.00;5.30;;;;;;;17.35;42.60;101238.13;5092787;28;20463;-69
2022/04/21 08:06:57;;;;;;;8.90;5.10;;;;;;;18.31;42.12;101248.66;5092792;28;20142;-69
2022/04/21 08:09:23;;;;;;;8.93;4.60;;;;;;;19.15;39.17;101246.28;5092690;28;20103;-69
2022/04/21 08:11:48;;;;;;;8.57;5.07;;;;;;;19.47;38.67;101243.81;5092918;28;20148;-69
2022/04/21 08:14:16;;;;;;;9.48;5.18;;;;;;;19.11;39.03;101247.00;5092664;28;20035;-69
2022/04/21 08:16:43;;;;;;;11.20;5.45;;;;;;;19.57;38.87;101251.28;5112135;28;20521;-69
2022/04/21 08:19:09;;;;;;;9.57;5.63;;;;;;;19.87;37.45;101239.28;5112106;28;20052;-70
2022/04/21 08:21:34;;;;;;;10.38;5.10;;;;;;;20.07;37.10;101236.06;5111891;28;20079;-69
2022/04/21 08:32:33;;;;;;;6.15;4.40;;;;;;;20.19;37.11;101236.75;5111835;28;20024;-69
2022/04/21 08:32:46;;;;;;;8.82;5.43;;;;;;;20.02;36.50;101236.81;5112095;28;20440;-69
2022/04/21 08:35:05;;;;;;;12.48;4.57;;;;;;;19.71;37.03;101243.66;5107742;28;20040;-69
2022/04/21 08:37:34;;;;;;;7.75;4.35;;;;;;;19.50;37.59;101245.22;5111822;28;20054;-69
2022/04/21 08:40:03;;;;;;;7.60;4.20;;;;;;;19.23;38.07;101242.31;5111680;28;20039;-69
2022/04/21 08:42:34;;;;;;;9.70;5.13;;;;;;;19.16;38.92;101247.09;5111719;28;20028;-69
2022/04/21 08:44:59;;;;;;;6.95;4.25;;;;;;;17.82;41.03;101246.28;5091865;28;20414;-69
2022/04/21 08:47:28;;;;;;;9.07;5.30;;;;;;;16.75;43.19;101251.63;5111671;28;20235;-69
2022/04/21 08:49:57;;;;;;;12.63;6.32;;;;;;;16.09;44.62;101243.31;5111645;27;20035;-69
2022/04/21 08:52:24;;;;;;;8.25;5.38;;;;;;;15.60;46.10;101242.31;5111455;28;20032;-69
2022/04/21 08:54:49;;;;;;;8.10;5.00;;;;;;;15.21;48.18;101233.50;5111273;28;20031;-69
2022/04/21 08:57:15;;;;;;;10.57;5.93;;;;;;;15.04;48.42;101237.78;5111360;28;20035;-69
2022/04/21 08:59:40;;;;;;;12.50;5.70;;;;;;;14.79;50.15;101226.97;5109887;28;20114;-69
2022/04/21 09:02:07;;;;;;;7.80;4.50;;;;;;;14.67;49.37;101229.50;5109979;28;20039;-69
2022/04/21 09:04:32;;;;;;;7.15;4.40;;;;;;;14.59;46.88;101233.28;5109944;28;20023;-69
2022/04/21 09:07:23;;;;;;;7.53;4.25;;;;;;;14.50;47.15;101228.31;5111214;28;20031;-69
2022/04/21 09:10:03;;;;;;;9.20;3.75;;;;;;;14.54;46.45;101238.47;5111160;28;20031;-69
2022/04/21 09:12:28;;;;;;;7.72;3.88;;;;;;;14.50;45.28;101229.13;5110591;28;20058;-69
2022/04/21 09:14:54;;;;;;;9.25;3.88;;;;;;;14.44;44.75;101228.13;5111117;28;20479;-69
2022/04/21 09:17:19;;;;;;;7.60;4.35;;;;;;;14.37;45.33;101230.00;5091476;28;20077;-69
2022/04/21 09:20:04;;;;;;;6.75;3.25;;;;;;;14.40;41.45;101229.59;5091572;28;20466;-69
2022/04/21 09:22:33;;;;;;;5.15;2.63;;;;;;;14.53;42.75;101220.69;5110869;28;20035;-68
2022/04/21 09:24:59;;;;;;;5.05;2.75;;;;;;;14.62;40.49;101218.59;5110783;27;20080;-68
2022/04/21 09:27:44;;;;;;;8.07;3.75;;;;;;;14.73;40.47;101233.22;5110735;28;20098;-68
2022/04/21 09:30:12;;;;;;;4.88;2.78;;;;;;;14.65;39.91;101220.84;5110742;28;20640;-68
2022/04/21 09:32:49;;;;;;;11.60;3.78;;;;;;;14.64;38.56;101221.88;5110672;28;21197;-69
2022/04/21 09:35:15;;;;;;;4.78;2.80;;;;;;;14.66;39.26;101207.19;5110651;28;20019;-68
2022/04/21 09:37:48;;;;;;;4.88;2.85;;;;;;;14.82;40.89;101205.06;5110461;28;20079;-69
2022/04/21 09:40:16;;;;;;;5.43;3.30;;;;;;;14.96;39.83;101203.09;5110473;27;20031;-69
2022/04/21 09:42:41;;;;;;;5.55;3.40;;;;;;;15.04;40.18;101214.41;5110413;28;20039;-69
2022/04/21 09:47:54;;;;;;;7.20;3.50;;;;;;;15.18;40.82;101208.94;5110817;28;20136;-69
2022/04/21 09:50:20;;;;;;;8.85;4.35;;;;;;;15.24;41.43;101205.38;5110345;28;20046;-69
2022/04/21 09:52:51;;;;;;;6.03;3.92;;;;;;;15.17;41.43;101205.44;5108494;28;20415;-69
2022/04/21 09:55:27;;;;;;;10.32;3.90;;;;;;;15.12;41.63;101203.41;5110045;28;20061;-69
2022/04/21 09:58:05;;;;;;;6.38;4.03;;;;;;;15.14;42.64;101187.03;5110100;28;20088;-69
2022/04/21 10:00:32;;;;;;;7.07;3.80;;;;;;;15.37;41.01;101196.38;5109080;28;20027;-70
2022/04/21 10:03:00;;;;;;;3.28;2.80;;;;;;;15.31;40.53;101193.53;5110148;28;20047;-69
2022/04/21 10:05:25;;;;;;;8.55;3.33;;;;;;;15.12;41.56;101181.91;5109973;27;20030;-69
2022/04/21 10:07:52;;;;;;;4.53;3.15;;;;;;;15.22;40.69;101186.81;5109919;28;20027;-69
2022/04/21 10:10:18;;;;;;;8.10;3.40;;;;;;;15.29;40.27;101190.25;5109730;28;20032;-69
2022/04/21 10:12:44;;;;;;;5.13;2.50;;;;;;;15.36;36.18;101179.44;5110170;28;20023;-69
2022/04/21 10:15:10;;;;;;;4.35;2.63;;;;;;;15.45;34.34;101190.72;5109864;28;20035;-69
2022/04/21 10:17:37;;;;;;;2.83;2.13;;;;;;;15.48;35.29;101187.59;5109821;28;20059;-69
2022/04/21 10:20:04;;;;;;;3.88;2.03;;;;;;;15.50;35.28;101182.81;5102039;28;20162;-70
2022/04/21 10:22:32;;;;;;;4.97;2.50;;;;;;;15.41;35.31;101181.47;5093781;28;20375;-69
2022/04/21 10:24:58;;;;;;;3.17;2.38;;;;;;;15.30;35.80;101185.69;5093951;28;20024;-69
2022/04/21 10:27:46;;;;;;;6.85;2.97;;;;;;;15.29;36.85;101174.13;5093599;28;20196;-71
2022/04/21 10:30:29;;;;;;;4.65;2.85;;;;;;;15.31;36.30;101165.84;5094988;27;20042;-70
2022/04/21 10:32:56;;;;;;;5.80;3.83;;;;;;;15.44;36.22;101160.34;5094915;28;20020;-70
2022/04/21 10:35:27;;;;;;;5.30;3.03;;;;;;;15.59;36.53;101162.69;5093071;28;20024;-70
2022/04/21 10:38:14;;;;;;;5.93;2.50;;;;;;;15.72;37.70;101162.59;5095009;28;20031;-70
2022/04/21 10:41:03;;;;;;;4.68;2.30;;;;;;;15.88;38.10;101157.66;5093496;28;20020;-70
2022/04/21 10:43:55;;;;;;;3.65;2.72;;;;;;;15.98;36.92;101163.31;5093157;28;20055;-70
2022/04/21 10:46:21;;;;;;;;;;;;;;;15.97;35.97;101159.00;5089045;28;20357;-71
2022/04/21 10:48:47;;;;;;;6.13;2.80;;;;;;;15.87;36.20;101151.44;5094852;28;19939;-70
2022/04/21 10:51:13;;;;;;;4.45;3.28;;;;;;;15.89;35.86;101146.66;5094327;28;20016;-70
2022/04/21 10:59:29;;;;;;;4.13;2.75;;;;;;;15.76;35.72;101150.31;5093740;28;20050;-70
2022/04/21 11:01:55;;;;;;;4.03;2.58;;;;;;;15.77;36.04;101143.06;5094067;28;20489;-70
2022/04/21 11:04:23;;;;;;;6.05;3.42;;;;;;;15.85;36.46;101139.25;5092861;28;20028;-70
2022/04/21 11:06:51;;;;;;;11.02;2.75;;;;;;;15.86;35.82;101143.63;5094603;28;20034;-70
2022/04/21 11:09:39;;;;;;;4.05;2.50;;;;;;;15.85;37.15;101141.94;5093388;28;20038;-70
2022/04/21 11:12:07;;;;;;;6.55;3.10;;;;;;;15.82;38.27;101127.09;5092310;28;20570;-70
2022/04/21 11:14:34;;;;;;;4.28;3.10;;;;;;;15.93;35.52;101134.41;5092815;28;20024;-70
2022/04/21 11:17:01;;;;;;;6.22;3.00;;;;;;;15.97;35.91;101127.53;5092631;28;20395;-70
2022/04/21 11:19:29;;;;;;;3.83;2.75;;;;;;;16.13;35.37;101130.66;5093198;28;20463;-70
2022/04/21 11:22:05;;;;;;;3.00;2.50;;;;;;;16.25;36.35;101125.34;5093872;28;20483;-70
2022/04/21 11:24:56;;;;;;;6.50;2.97;;;;;;;16.37;35.64;101123.50;5093090;28;20026;-70
2022/04/21 11:27:23;;;;;;;5.65;3.22;;;;;;;16.43;35.66;101111.84;5093610;28;20059;-71
2022/04/21 11:29:48;;;;;;;5.63;3.00;;;;;;;16.48;34.02;101098.50;5092982;28;20421;-70
2022/04/21 11:32:17;;;;;;;5.82;3.50;;;;;;;16.44;35.50;101114.28;5093816;28;20028;-70
2022/04/21 11:35:16;;;;;;;4.55;2.80;;;;;;;16.47;34.94;101106.81;5093300;28;20020;-70
2022/04/21 11:37:45;;;;;;;5.25;2.85;;;;;;;16.40;33.42;101096.13;5096418;28;20024;-71
2022/04/21 11:40:37;;;;;;;5.25;2.75;;;;;;;16.54;34.04;101094.06;5096855;28;20024;-71
2022/04/21 11:43:06;;;;;;;2.78;2.40;;;;;;;16.53;33.63;101082.47;5094848;28;20391;-71
2022/04/21 11:45:38;;;;;;;4.00;2.95;;;;;;;16.63;33.60;101090.78;5095649;28;20024;-72
2022/04/21 11:48:12;;;;;;;4.60;3.10;;;;;;;16.69;34.44;101090.91;5096692;28;20085;-71
2022/04/21 11:50:37;;;;;;;2.72;2.50;;;;;;;16.70;32.72;101076.41;5097294;28;20226;-72
2022/04/21 11:53:18;;;;;;;5.40;2.53;;;;;;;16.77;31.85;101085.22;5097058;28;20473;-72
2022/04/21 11:55:45;;;;;;;5.70;2.25;;;;;;;16.86;32.28;101071.19;5096070;28;20055;-71
2022/04/21 11:58:10;;;;;;;4.65;3.30;;;;;;;17.13;33.29;101089.59;5097748;28;20028;-71
2022/04/21 12:08:50;;;;;;;6.15;3.17;;;;;;;17.56;32.18;101061.44;5098315;28;20079;-69
2022/04/21 12:11:18;;;;;;;4.70;2.95;;;;;;;17.80;33.04;101050.63;5096493;28;20035;-71
2022/04/21 12:13:46;;;;;;;6.05;2.80;;;;;;;17.94;31.05;101057.34;5095591;27;20039;-71
2022/04/21 12:16:41;;;;;;;3.17;2.40;;;;;;;17.81;33.10;101063.84;5098082;27;20038;-69
2022/04/21 12:19:16;;;;;;;3.97;2.35;;;;;;;17.35;32.84;101070.97;5097396;28;20472;-70
2022/04/21 12:21:43;;;;;;;5.50;2.70;;;;;;;16.93;33.37;101056.81;5095988;28;20059;-71
2022/04/21 12:24:17;;;;;;;5.82;2.92;;;;;;;16.69;34.46;101070.22;5095872;28;20069;-72